createdAt,value
2019-04-11T00:02:24.885Z,1.40
2019-04-11T00:04:55.260Z,0.80
2019-04-11T00:07:26.014Z,1.00
2019-04-11T00:09:56.817Z,1.80
2019-04-11T00:12:27.292Z,2.20
2019-04-11T00:14:58.077Z,4.00
2019-04-11T00:17:28.420Z,1.00
2019-04-11T00:19:58.539Z,1.40
2019-04-11T00:22:29.810Z,1.40
2019-04-11T00:25:01.068Z,3.00
2019-04-11T00:27:31.163Z,3.50
2019-04-11T00:30:01.930Z,2.20
2019-04-11T00:32:32.106Z,3.00
2019-04-11T00:35:03.675Z,1.40
2019-04-11T00:37:34.902Z,2.20
2019-04-11T00:40:06.927Z,3.00
2019-04-11T00:42:37.268Z,2.20
2019-04-11T00:45:08.022Z,0.00
2019-04-11T00:47:38.672Z,1.00
2019-04-11T00:50:10.697Z,0.50
2019-04-11T00:52:41.263Z,3.00
2019-04-11T00:55:11.496Z,1.00
2019-04-11T00:57:43.225Z,1.00
2019-04-11T01:00:13.879Z,3.50
2019-04-11T01:02:44.014Z,1.80
2019-04-11T01:05:15.147Z,1.00
2019-04-11T01:07:47.058Z,1.50
2019-04-11T01:10:18.142Z,1.00
2019-04-11T01:12:49.776Z,2.60
2019-04-11T01:15:21.635Z,1.00
2019-04-11T01:17:51.793Z,1.40
2019-04-11T01:20:23.702Z,1.00
2019-04-11T01:22:54.263Z,1.00
2019-04-11T01:25:24.577Z,3.00
2019-04-11T01:27:56.352Z,2.00
2019-04-11T01:30:33.305Z,0.00
2019-04-11T01:33:04.561Z,1.00
2019-04-11T01:35:34.734Z,1.00
2019-04-11T01:38:06.151Z,1.00
2019-04-11T01:40:36.447Z,1.00
2019-04-11T01:43:08.040Z,0.50
2019-04-11T01:45:38.500Z,1.00
2019-04-11T01:48:22.100Z,0.50
2019-04-11T01:50:53.614Z,1.00
2019-04-11T01:53:24.762Z,1.00
2019-04-11T01:55:55.316Z,1.00
2019-04-11T01:58:26.717Z,2.00
2019-04-11T02:01:14.908Z,3.00
2019-04-11T02:04:03.641Z,0.50
2019-04-11T02:06:36.129Z,3.00
2019-04-11T02:09:09.125Z,2.00
2019-04-11T02:11:39.862Z,2.50
2019-04-11T02:14:15.776Z,1.50
2019-04-11T02:16:41.850Z,0.50
2019-04-11T02:19:12.665Z,2.50
2019-04-11T02:21:44.206Z,1.00
2019-04-11T02:24:19.587Z,0.75
2019-04-11T02:26:58.682Z,1.00
2019-04-11T02:29:29.813Z,0.75
2019-04-11T02:32:04.745Z,2.00
2019-04-11T02:34:32.212Z,1.00
2019-04-11T02:37:02.777Z,4.00
2019-04-11T02:39:33.751Z,3.25
2019-04-11T02:42:06.337Z,4.00
2019-04-11T02:44:50.930Z,4.00
2019-04-11T02:47:13.670Z,3.00
2019-04-11T02:49:44.172Z,3.00
2019-04-11T02:52:17.415Z,2.00
2019-04-11T02:54:49.209Z,3.00
2019-04-11T02:57:21.509Z,3.50
2019-04-11T02:59:51.536Z,2.50
2019-04-11T03:02:23.631Z,6.50
2019-04-11T03:04:55.383Z,4.00
2019-04-11T03:07:25.487Z,3.75
2019-04-11T03:09:56.472Z,3.50
2019-04-11T03:12:27.553Z,5.00
2019-04-11T03:15:18.069Z,3.25
2019-04-11T03:17:35.939Z,4.00
2019-04-11T03:20:13.063Z,0.00
2019-04-11T03:22:34.880Z,3.50
2019-04-11T03:25:06.036Z,4.00
2019-04-11T03:27:37.796Z,3.50
2019-04-11T03:30:14.701Z,3.00
2019-04-11T03:33:43.476Z,3.25
2019-04-11T03:38:03.635Z,6.00
2019-04-11T03:40:36.813Z,3.00
2019-04-11T03:43:05.783Z,3.75
2019-04-11T03:45:43.526Z,6.00
2019-04-11T03:48:10.664Z,5.50
2019-04-11T03:50:30.536Z,6.00
2019-04-11T03:53:01.409Z,3.50
2019-04-11T03:55:32.249Z,4.00
2019-04-11T03:58:03.778Z,2.00
2019-04-11T04:00:37.248Z,3.50
2019-04-11T04:03:08.936Z,4.00
2019-04-11T04:05:39.724Z,3.75
2019-04-11T04:08:10.859Z,2.50
2019-04-11T04:10:43.660Z,5.00
2019-04-11T04:13:17.286Z,3.00
2019-04-11T04:16:04.176Z,4.50
2019-04-11T04:18:36.259Z,4.00
2019-04-11T04:21:26.233Z,3.00
2019-04-11T04:23:59.400Z,3.75
2019-04-11T04:26:29.274Z,1.00
2019-04-11T04:29:01.882Z,4.00
2019-04-11T04:31:32.942Z,3.75
2019-04-11T04:34:03.864Z,3.25
2019-04-11T04:36:34.784Z,2.00
2019-04-11T04:39:05.945Z,1.50
2019-04-11T04:41:42.834Z,3.00
2019-04-11T04:44:09.156Z,1.00
2019-04-11T04:46:55.422Z,3.25
2019-04-11T04:49:12.891Z,2.00
2019-04-11T04:51:45.733Z,0.25
2019-04-11T04:54:16.259Z,3.00
2019-04-11T04:56:47.375Z,2.50
2019-04-11T04:59:19.485Z,1.00
2019-04-11T05:01:50.871Z,1.00
2019-04-11T05:04:21.283Z,1.00
2019-04-11T05:06:52.964Z,1.00
2019-04-11T05:09:23.502Z,2.00
2019-04-11T05:11:55.145Z,1.00
2019-04-11T05:14:25.538Z,0.50
2019-04-11T05:16:58.033Z,2.50
2019-04-11T05:19:29.883Z,1.00
2019-04-11T05:22:00.170Z,2.00
2019-04-11T05:24:30.495Z,2.00
2019-04-11T05:27:00.889Z,1.00
2019-04-11T05:29:31.456Z,1.00
2019-04-11T05:32:03.097Z,1.00
2019-04-11T05:34:33.549Z,2.50
2019-04-11T05:37:03.960Z,1.00
2019-04-11T05:39:34.252Z,3.00
2019-04-11T05:42:05.080Z,0.00
2019-04-11T05:44:38.294Z,0.25
2019-04-11T05:47:07.241Z,1.00
2019-04-11T05:49:48.820Z,1.00
2019-04-11T05:52:19.808Z,1.00
2019-04-11T05:54:55.308Z,1.00
2019-04-11T05:57:33.591Z,0.00
2019-04-11T05:59:57.770Z,0.00
2019-04-11T06:02:39.531Z,0.00
2019-04-11T06:05:13.108Z,1.00
2019-04-11T06:07:57.561Z,0.75
2019-04-11T06:10:28.271Z,0.00
2019-04-11T06:13:18.563Z,0.00
2019-04-11T06:15:53.616Z,0.00
2019-04-11T06:18:37.767Z,0.00
2019-04-11T06:21:09.519Z,0.00
2019-04-11T06:23:41.770Z,0.50
2019-04-11T06:26:18.738Z,0.00
2019-04-11T06:28:52.888Z,0.00
2019-04-11T06:31:24.852Z,0.00
2019-04-11T06:33:56.908Z,0.00
2019-04-11T06:36:34.847Z,0.00
2019-04-11T06:39:12.228Z,0.25
2019-04-11T06:41:44.038Z,0.25
2019-04-11T06:44:28.497Z,0.00
2019-04-11T06:47:02.110Z,0.25
2019-04-11T06:49:48.935Z,0.00
2019-04-11T06:52:19.199Z,0.00
2019-04-11T06:54:58.194Z,0.00
2019-04-11T06:57:30.222Z,0.00
2019-04-11T07:00:02.975Z,1.00
2019-04-11T07:02:34.087Z,0.00
2019-04-11T07:05:07.963Z,0.00
2019-04-11T07:07:41.111Z,0.00
2019-04-11T07:10:11.722Z,0.25
2019-04-11T07:12:44.055Z,0.00
2019-04-11T07:15:15.824Z,0.00
2019-04-11T07:18:06.063Z,1.00
2019-04-11T07:20:43.972Z,0.00
2019-04-11T07:23:33.092Z,0.00
2019-04-11T07:26:11.982Z,0.00
2019-04-11T07:28:44.655Z,0.00
2019-04-11T07:31:33.219Z,0.00
2019-04-11T07:34:08.837Z,0.00
2019-04-11T07:37:00.120Z,0.00
2019-04-11T07:39:33.519Z,0.00
2019-04-11T07:42:11.443Z,0.00
2019-04-11T07:44:47.271Z,0.00
2019-04-11T07:47:23.226Z,0.25
2019-04-11T07:49:55.201Z,0.00
2019-04-11T07:52:27.218Z,0.75
2019-04-11T07:54:57.965Z,0.00
2019-04-11T07:57:30.646Z,0.00
2019-04-11T08:00:03.758Z,0.00
2019-04-11T08:02:53.207Z,0.00
2019-04-11T08:05:44.600Z,0.00
2019-04-11T08:08:17.619Z,0.00
2019-04-11T08:10:58.737Z,0.00
2019-04-11T08:13:42.938Z,0.25
2019-04-11T08:16:32.878Z,0.00
2019-04-11T08:19:17.632Z,0.00
2019-04-11T08:21:56.747Z,0.00
2019-04-11T08:24:41.059Z,0.00
2019-04-11T08:27:13.420Z,0.00
2019-04-11T08:29:44.432Z,0.00
2019-04-11T08:32:17.664Z,0.00
2019-04-11T08:34:53.475Z,0.00
2019-04-11T08:37:31.819Z,0.00
2019-04-11T08:40:03.585Z,0.00
2019-04-11T08:42:52.795Z,0.00
2019-04-11T08:45:25.801Z,0.00
2019-04-11T08:47:58.779Z,0.00
2019-04-11T08:50:30.947Z,1.00
2019-04-11T08:53:12.993Z,0.00
2019-04-11T08:55:52.876Z,0.00
2019-04-11T08:58:22.663Z,0.00
2019-04-11T09:01:00.220Z,1.00
2019-04-11T09:03:37.793Z,0.00
2019-04-11T09:06:09.862Z,0.00
2019-04-11T09:08:48.862Z,0.00
2019-04-11T09:11:24.625Z,0.00
2019-04-11T09:14:03.903Z,0.50
2019-04-11T09:16:45.896Z,1.00
2019-04-11T09:19:30.622Z,0.00
2019-04-11T09:22:13.087Z,0.00
2019-04-11T09:24:46.466Z,0.50
2019-04-11T09:27:34.615Z,0.00
2019-04-11T09:30:25.077Z,0.00
2019-04-11T09:33:06.829Z,0.25
2019-04-11T09:35:44.712Z,0.00
2019-04-11T09:38:32.730Z,0.00
2019-04-11T09:41:08.119Z,0.00
2019-04-11T09:43:40.152Z,0.00
2019-04-11T09:46:14.982Z,-0.25
2019-04-11T09:48:48.252Z,0.00
2019-04-11T09:51:33.886Z,0.00
2019-04-11T09:54:09.936Z,0.00
2019-04-11T09:56:51.769Z,0.00
2019-04-11T09:59:24.952Z,0.00
2019-04-11T10:02:05.905Z,0.00
2019-04-11T10:04:37.591Z,0.00
2019-04-11T10:07:28.268Z,0.00
2019-04-11T10:10:06.506Z,0.00
2019-04-11T10:12:42.559Z,0.00
2019-04-11T10:15:13.552Z,0.00
2019-04-11T10:18:03.153Z,0.00
2019-04-11T10:20:34.989Z,0.00
2019-04-11T10:23:10.326Z,0.00
2019-04-11T10:25:43.273Z,0.00
2019-04-11T10:28:19.528Z,0.00
2019-04-11T10:31:10.484Z,0.00
2019-04-11T10:33:55.473Z,0.00
2019-04-11T10:36:27.815Z,0.00
2019-04-11T10:39:00.558Z,0.00
2019-04-11T10:41:35.726Z,0.00
2019-04-11T10:44:06.236Z,0.00
2019-04-11T10:46:53.586Z,0.00
2019-04-11T10:49:28.737Z,1.00
2019-04-11T10:52:15.548Z,0.00
2019-04-11T10:54:47.628Z,0.00
2019-04-11T10:57:21.380Z,0.00
2019-04-11T10:59:54.331Z,0.00
2019-04-11T11:02:26.194Z,0.50
2019-04-11T11:04:58.935Z,0.00
2019-04-11T11:07:30.766Z,0.00
2019-04-11T11:10:09.248Z,0.00
2019-04-11T11:12:41.425Z,0.00
2019-04-11T11:15:19.836Z,0.00
2019-04-11T11:20:50.079Z,0.00
2019-04-11T11:23:35.283Z,1.00
2019-04-11T11:26:07.266Z,0.00
2019-04-11T11:28:43.164Z,0.00
2019-04-11T11:31:15.990Z,0.00
2019-04-11T11:33:46.902Z,0.00
2019-04-11T11:36:19.400Z,0.00
2019-04-11T11:39:10.841Z,0.00
2019-04-11T11:41:59.080Z,0.00
2019-04-11T11:44:32.713Z,0.00
2019-04-11T11:47:21.635Z,0.00
2019-04-11T11:49:58.584Z,0.00
2019-04-11T11:52:43.983Z,0.75
2019-04-11T11:55:17.579Z,0.25
2019-04-11T11:58:08.861Z,0.00
2019-04-11T12:00:39.224Z,0.00
2019-04-11T12:03:29.950Z,0.00
2019-04-11T12:06:00.938Z,0.00
2019-04-11T12:08:32.848Z,0.75
2019-04-11T12:11:05.947Z,0.00
2019-04-11T12:13:41.122Z,0.00
2019-04-11T12:16:16.101Z,0.00
2019-04-11T12:18:50.302Z,0.25
2019-04-11T12:21:26.354Z,0.00
2019-04-11T12:24:02.576Z,0.00
2019-04-11T12:26:32.804Z,0.00
2019-04-11T12:29:02.769Z,0.00
2019-04-11T12:31:35.595Z,1.00
2019-04-11T12:34:18.540Z,0.00
2019-04-11T12:36:50.891Z,0.00
2019-04-11T12:39:24.681Z,0.25
2019-04-11T12:41:59.690Z,0.00
2019-04-11T12:44:32.248Z,0.00
2019-04-11T12:47:07.588Z,0.25
2019-04-11T12:49:53.113Z,0.00
2019-04-11T12:52:33.449Z,1.00
2019-04-11T12:55:09.209Z,0.00
2019-04-11T12:57:58.169Z,0.00
2019-04-11T13:00:42.370Z,0.75
2019-04-11T13:03:30.205Z,0.00
2019-04-11T13:06:08.152Z,0.50
2019-04-11T13:08:43.588Z,0.50
2019-04-11T13:11:15.456Z,0.50
2019-04-11T13:13:53.364Z,0.50
2019-04-11T13:16:25.620Z,0.00
2019-04-11T13:18:57.101Z,0.00
2019-04-11T13:21:32.068Z,0.00
2019-04-11T13:24:04.275Z,0.00
2019-04-11T13:26:39.595Z,1.00
2019-04-11T13:29:14.864Z,0.00
2019-04-11T13:31:56.302Z,0.00
2019-04-11T13:34:34.201Z,0.00
2019-04-11T13:37:18.500Z,0.25
2019-04-11T13:39:50.556Z,1.00
2019-04-11T13:42:41.268Z,0.00
2019-04-11T13:45:13.109Z,0.25
2019-04-11T13:47:45.555Z,0.00
2019-04-11T13:50:17.521Z,0.00
2019-04-11T13:52:52.396Z,0.00
2019-04-11T13:55:23.020Z,1.00
2019-04-11T13:58:11.433Z,0.00
2019-04-11T14:00:44.004Z,0.00
2019-04-11T14:03:30.764Z,0.00
2019-04-11T14:06:12.248Z,0.50
2019-04-11T14:09:01.481Z,0.00
2019-04-11T14:11:33.785Z,1.00
2019-04-11T14:14:15.273Z,0.25
2019-04-11T14:17:03.012Z,0.00
2019-04-11T14:19:34.780Z,0.00
2019-04-11T14:22:07.148Z,0.00
2019-04-11T14:24:42.574Z,0.00
2019-04-11T14:27:18.012Z,0.00
2019-04-11T14:30:02.068Z,0.00
2019-04-11T14:32:34.173Z,0.00
2019-04-11T14:35:09.476Z,1.00
2019-04-11T14:37:41.325Z,1.00
2019-04-11T14:40:13.401Z,0.00
2019-04-11T14:43:06.865Z,0.80
2019-04-11T14:45:54.604Z,0.00
2019-04-11T14:48:44.588Z,0.00
2019-04-11T14:51:32.940Z,0.60
2019-04-11T14:54:08.537Z,0.00
2019-04-11T14:56:47.809Z,0.00
2019-04-11T14:59:25.731Z,0.00
2019-04-11T15:02:06.894Z,0.00
2019-04-11T15:04:51.676Z,0.00
2019-04-11T15:07:21.851Z,0.80
2019-04-11T15:09:56.721Z,1.00
2019-04-11T15:12:34.812Z,0.40
2019-04-11T15:15:19.305Z,0.00
2019-04-11T15:17:50.057Z,1.00
2019-04-11T15:20:33.809Z,0.00
2019-04-11T15:23:10.520Z,0.00
2019-04-11T15:25:45.857Z,1.00
2019-04-11T15:28:20.796Z,0.00
2019-04-11T15:30:55.334Z,0.00
2019-04-11T15:33:43.821Z,1.00
2019-04-11T15:36:15.657Z,0.00
2019-04-11T15:38:50.249Z,1.00
2019-04-11T15:41:20.796Z,0.40
2019-04-11T15:44:09.181Z,1.00
2019-04-11T15:46:39.801Z,1.00
2019-04-11T15:49:20.614Z,1.00
2019-04-11T15:51:44.773Z,1.00
2019-04-11T15:54:17.374Z,1.00
2019-04-11T15:56:52.539Z,0.00
2019-04-11T15:59:43.774Z,0.80
2019-04-11T16:02:30.029Z,0.40
2019-04-11T16:05:02.735Z,1.00
2019-04-11T16:07:51.151Z,0.60
2019-04-11T16:10:22.927Z,1.00
2019-04-11T16:12:54.959Z,1.00
2019-04-11T16:15:35.647Z,0.60
2019-04-11T16:18:24.297Z,0.00
2019-04-11T16:20:56.470Z,0.80
2019-04-11T16:23:28.079Z,1.20
2019-04-11T16:25:58.725Z,1.20
2019-04-11T16:28:35.800Z,1.00
2019-04-11T16:31:05.222Z,4.00
2019-04-11T16:33:46.895Z,2.00
2019-04-11T16:36:19.502Z,1.40
2019-04-11T16:38:57.096Z,1.60
2019-04-11T16:41:45.441Z,2.00
2019-04-11T16:44:24.774Z,1.80
2019-04-11T16:47:10.019Z,2.80
2019-04-11T16:49:42.213Z,2.00
2019-04-11T16:52:12.217Z,1.40
2019-04-11T16:54:42.581Z,1.20
2019-04-11T16:57:13.745Z,2.00
2019-04-11T16:59:44.624Z,0.00
2019-04-11T17:02:14.940Z,2.00
2019-04-11T17:04:45.233Z,1.00
2019-04-11T17:07:29.143Z,1.80
2019-04-11T17:10:00.992Z,1.60
2019-04-11T17:12:31.107Z,2.60
2019-04-11T17:15:01.805Z,1.80
2019-04-11T17:17:32.332Z,2.00
2019-04-11T17:20:07.407Z,2.00
2019-04-11T17:22:37.725Z,2.00
2019-04-11T17:25:08.444Z,2.40
2019-04-11T17:27:38.968Z,2.80
2019-04-11T17:30:09.516Z,2.00
2019-04-11T17:32:39.765Z,2.00
2019-04-11T17:35:10.649Z,2.00
2019-04-11T17:37:41.692Z,3.00
2019-04-11T17:40:11.853Z,2.80
2019-04-11T17:42:43.999Z,2.00
2019-04-11T17:45:14.845Z,2.40
2019-04-11T17:47:45.039Z,3.00
2019-04-11T17:50:15.762Z,2.40
2019-04-11T17:52:46.629Z,5.40
2019-04-11T17:55:16.720Z,5.20
2019-04-11T17:57:47.476Z,5.20
2019-04-11T18:00:22.557Z,4.80
2019-04-11T18:02:52.756Z,4.00
2019-04-11T18:05:23.356Z,4.80
2019-04-11T18:07:53.621Z,4.00
2019-04-11T18:10:25.947Z,4.40
2019-04-11T18:12:57.552Z,3.00
2019-04-11T18:15:28.853Z,3.00
2019-04-11T18:17:59.300Z,4.60
2019-04-11T18:20:29.532Z,3.60
2019-04-11T18:23:00.448Z,2.20
2019-04-11T18:25:30.776Z,3.80
2019-04-11T18:28:01.186Z,4.00
2019-04-11T18:30:31.659Z,4.00
2019-04-11T18:33:02.460Z,4.00
2019-04-11T18:35:32.915Z,3.20
2019-04-11T18:38:03.244Z,3.60
2019-04-11T18:40:33.452Z,4.20
2019-04-11T18:43:03.971Z,4.00
2019-04-11T18:45:34.314Z,2.80
2019-04-11T18:48:04.520Z,3.40
2019-04-11T18:50:34.947Z,3.40
2019-04-11T18:53:05.593Z,4.00
2019-04-11T18:55:35.733Z,4.00
2019-04-11T18:58:06.316Z,4.00
2019-04-11T19:00:38.322Z,4.00
2019-04-11T19:03:10.281Z,4.20
2019-04-11T19:05:42.987Z,3.60
2019-04-11T19:08:14.459Z,4.20
2019-04-11T19:10:45.777Z,3.00
2019-04-11T19:13:16.978Z,3.00
2019-04-11T19:15:47.583Z,3.60
2019-04-11T19:18:17.840Z,4.80
2019-04-11T19:20:50.325Z,3.00
2019-04-11T19:23:20.125Z,4.00
2019-04-11T19:25:50.320Z,4.00
2019-04-11T19:28:24.757Z,4.40
2019-04-11T19:30:53.944Z,4.20
2019-04-11T19:33:24.406Z,3.80
2019-04-11T19:35:54.616Z,3.80
2019-04-11T19:38:29.962Z,4.00
2019-04-11T19:41:00.281Z,2.00
2019-04-11T19:43:30.507Z,2.60
2019-04-11T19:46:01.320Z,3.40
2019-04-11T19:48:31.603Z,2.60
2019-04-11T19:51:01.757Z,2.20
2019-04-11T19:53:33.012Z,3.80
2019-04-11T19:56:08.578Z,3.80
2019-04-11T19:58:39.543Z,3.80
2019-04-11T20:01:10.037Z,4.00
2019-04-11T20:03:40.525Z,4.40
2019-04-11T20:06:13.165Z,4.00
2019-04-11T20:08:43.473Z,4.40
2019-04-11T20:11:14.078Z,4.00
2019-04-11T20:13:44.623Z,4.00
2019-04-11T20:16:15.133Z,3.00
2019-04-11T20:18:50.987Z,4.80
2019-04-11T20:21:17.477Z,5.00
2019-04-11T20:23:47.964Z,5.00
2019-04-11T20:26:20.360Z,3.20
2019-04-11T20:28:51.026Z,4.20
2019-04-11T20:31:22.516Z,4.20
2019-04-11T20:33:53.147Z,3.80
2019-04-11T20:36:32.950Z,4.20
2019-04-11T20:38:55.766Z,3.20
2019-04-11T20:41:26.184Z,4.80
2019-04-11T20:43:57.224Z,2.80
2019-04-11T20:46:29.168Z,3.40
2019-04-11T20:48:59.633Z,2.80
2019-04-11T20:51:30.256Z,4.00
2019-04-11T20:54:00.664Z,3.60
2019-04-11T20:56:31.681Z,4.40
2019-04-11T20:59:01.715Z,3.20
2019-04-11T21:01:32.024Z,3.00
2019-04-11T21:04:04.673Z,2.80
2019-04-11T21:06:33.932Z,2.40
2019-04-11T21:09:05.885Z,4.00
2019-04-11T21:11:37.148Z,4.00
2019-04-11T21:14:07.662Z,5.00
2019-04-11T21:16:38.573Z,5.40
2019-04-11T21:19:08.716Z,3.80
2019-04-11T21:21:39.021Z,5.60
2019-04-11T21:24:09.168Z,5.80
2019-04-11T21:26:39.645Z,5.00
2019-04-11T21:29:09.903Z,4.20
2019-04-11T21:31:40.673Z,4.40
2019-04-11T21:34:10.979Z,5.40
2019-04-11T21:36:41.473Z,5.00
2019-04-11T21:39:11.376Z,5.00
2019-04-11T21:41:41.788Z,5.00
2019-04-11T21:44:11.968Z,5.20
2019-04-11T21:46:43.081Z,5.00
2019-04-11T21:49:13.213Z,6.00
2019-04-11T21:51:44.436Z,5.00
2019-04-11T21:54:14.954Z,4.20
2019-04-11T21:56:49.365Z,5.40
2019-04-11T21:59:20.004Z,5.00
2019-04-11T22:01:53.738Z,4.60
2019-04-11T22:04:21.797Z,5.80
2019-04-11T22:06:51.911Z,5.00
2019-04-11T22:09:22.155Z,4.60
2019-04-11T22:11:52.293Z,4.60
2019-04-11T22:14:22.616Z,5.00
2019-04-11T22:16:54.910Z,3.20
2019-04-11T22:19:24.570Z,4.40
2019-04-11T22:21:54.691Z,5.60
2019-04-11T22:24:25.104Z,4.20
2019-04-11T22:26:55.561Z,5.60
2019-04-11T22:29:25.678Z,5.80
2019-04-11T22:31:56.561Z,4.40
2019-04-11T22:34:32.478Z,3.80
2019-04-11T22:37:02.941Z,3.80
2019-04-11T22:39:33.008Z,4.60
2019-04-11T22:42:03.636Z,3.80
2019-04-11T22:44:35.560Z,5.00
2019-04-11T22:47:08.022Z,4.00
2019-04-11T22:49:39.373Z,4.60
2019-04-11T22:52:11.365Z,4.00
2019-04-11T22:54:42.719Z,2.00
2019-04-11T22:57:13.012Z,4.60
2019-04-11T22:59:45.038Z,3.80
2019-04-11T23:02:17.661Z,3.00
2019-04-11T23:04:47.805Z,4.00
2019-04-11T23:07:18.534Z,2.00
2019-04-11T23:09:49.452Z,2.00
2019-04-11T23:12:19.709Z,2.40
2019-04-11T23:14:50.032Z,4.00
2019-04-11T23:17:20.144Z,4.00
2019-04-11T23:19:50.391Z,2.20
2019-04-11T23:22:20.624Z,0.00
2019-04-11T23:24:50.934Z,1.80
2019-04-11T23:27:21.441Z,2.60
2019-04-11T23:29:51.685Z,1.00
2019-04-11T23:32:22.049Z,1.40
2019-04-11T23:34:53.289Z,1.20
2019-04-11T23:37:24.209Z,2.40
2019-04-11T23:39:54.704Z,1.00
2019-04-11T23:42:25.532Z,1.20
2019-04-11T23:44:56.000Z,1.80
2019-04-11T23:47:26.213Z,2.20
2019-04-11T23:49:56.528Z,2.00
2019-04-11T23:52:27.428Z,1.00
2019-04-11T23:55:00.409Z,1.60
2019-04-11T23:57:31.269Z,1.00
